sensor_id;sensor_type;location;lat;lon;timestamp;pressure;altitude;pressure_sealevel;temperature;humidity
38786;BME280;24535;45.508;12.252;2023-06-24T00:00:58;101466.00;;;26.49;47.89
38786;BME280;24535;45.508;12.252;2023-06-24T00:03:23;101470.41;;;26.50;46.48
38786;BME280;24535;45.508;12.252;2023-06-24T00:05:49;101468.09;;;26.47;46.09
38786;BME280;24535;45.508;12.252;2023-06-24T00:08:18;101463.72;;;26.46;46.84
38786;BME280;24535;45.508;12.252;2023-06-24T00:10:45;101467.41;;;26.45;47.02
38786;BME280;24535;45.508;12.252;2023-06-24T00:13:10;101468.63;;;26.42;47.14
38786;BME280;24535;45.508;12.252;2023-06-24T00:15:35;101469.81;;;26.39;47.41
38786;BME280;24535;45.508;12.252;2023-06-24T00:18:01;101473.72;;;26.37;47.06
38786;BME280;24535;45.508;12.252;2023-06-24T00:20:30;101475.59;;;26.36;47.78
38786;BME280;24535;45.508;12.252;2023-06-24T00:22:56;101471.59;;;26.32;46.74
38786;BME280;24535;45.508;12.252;2023-06-24T00:25:21;101478.25;;;26.30;47.35
38786;BME280;24535;45.508;12.252;2023-06-24T00:27:47;101487.75;;;26.26;46.88
38786;BME280;24535;45.508;12.252;2023-06-24T00:30:12;101470.03;;;26.23;47.37
38786;BME280;24535;45.508;12.252;2023-06-24T00:32:37;101471.91;;;26.23;48.69
38786;BME280;24535;45.508;12.252;2023-06-24T00:35:03;101471.69;;;26.24;49.47
38786;BME280;24535;45.508;12.252;2023-06-24T00:37:28;101466.50;;;26.23;48.05
38786;BME280;24535;45.508;12.252;2023-06-24T00:39:54;101474.97;;;26.20;48.11
38786;BME280;24535;45.508;12.252;2023-06-24T00:42:19;101471.78;;;26.16;48.08
38786;BME280;24535;45.508;12.252;2023-06-24T00:44:44;101467.78;;;26.12;48.05
38786;BME280;24535;45.508;12.252;2023-06-24T00:47:10;101469.03;;;26.09;48.30
38786;BME280;24535;45.508;12.252;2023-06-24T00:49:35;101467.53;;;26.07;47.05
38786;BME280;24535;45.508;12.252;2023-06-24T00:52:01;101480.38;;;26.05;47.22
38786;BME280;24535;45.508;12.252;2023-06-24T00:54:26;101466.03;;;26.04;48.36
38786;BME280;24535;45.508;12.252;2023-06-24T00:56:56;101467.88;;;26.04;48.15
38786;BME280;24535;45.508;12.252;2023-06-24T00:59:21;101476.19;;;26.02;48.02
38786;BME280;24535;45.508;12.252;2023-06-24T01:01:48;101475.16;;;26.03;49.43
38786;BME280;24535;45.508;12.252;2023-06-24T01:04:14;101481.59;;;26.02;48.90
38786;BME280;24535;45.508;12.252;2023-06-24T01:06:41;101482.22;;;26.04;50.12
38786;BME280;24535;45.508;12.252;2023-06-24T01:09:09;101483.06;;;26.05;48.97
38786;BME280;24535;45.508;12.252;2023-06-24T01:11:34;101482.44;;;26.03;48.63
38786;BME280;24535;45.508;12.252;2023-06-24T01:14:00;101481.75;;;26.01;47.75
38786;BME280;24535;45.508;12.252;2023-06-24T01:16:32;101474.88;;;25.98;47.03
38786;BME280;24535;45.508;12.252;2023-06-24T01:19:00;101473.38;;;25.96;46.86
38786;BME280;24535;45.508;12.252;2023-06-24T01:21:52;101468.66;;;25.98;48.08
38786;BME280;24535;45.508;12.252;2023-06-24T01:27:23;101481.97;;;25.99;49.04
38786;BME280;24535;45.508;12.252;2023-06-24T01:29:46;101486.16;;;26.02;48.62
38786;BME280;24535;45.508;12.252;2023-06-24T01:32:19;101483.63;;;26.00;47.97
38786;BME280;24535;45.508;12.252;2023-06-24T01:34:49;101479.44;;;25.98;48.07
38786;BME280;24535;45.508;12.252;2023-06-24T01:37:21;101486.06;;;25.95;47.86
38786;BME280;24535;45.508;12.252;2023-06-24T01:39:53;101484.56;;;25.93;48.08
38786;BME280;24535;45.508;12.252;2023-06-24T01:42:21;101484.94;;;25.89;49.16
38786;BME280;24535;45.508;12.252;2023-06-24T01:44:47;101495.06;;;25.87;48.32
38786;BME280;24535;45.508;12.252;2023-06-24T01:47:14;101495.44;;;25.84;48.65
38786;BME280;24535;45.508;12.252;2023-06-24T01:49:41;101499.84;;;25.85;49.17
38786;BME280;24535;45.508;12.252;2023-06-24T01:52:07;101502.69;;;25.84;48.11
38786;BME280;24535;45.508;12.252;2023-06-24T01:54:33;101498.53;;;25.81;48.55
38786;BME280;24535;45.508;12.252;2023-06-24T01:56:59;101503.44;;;25.78;48.09
38786;BME280;24535;45.508;12.252;2023-06-24T01:59:28;101509.19;;;25.75;48.43
38786;BME280;24535;45.508;12.252;2023-06-24T02:01:54;101515.13;;;25.70;48.29
38786;BME280;24535;45.508;12.252;2023-06-24T02:04:20;101510.94;;;25.68;48.84
38786;BME280;24535;45.508;12.252;2023-06-24T02:06:46;101516.88;;;25.63;48.95
38786;BME280;24535;45.508;12.252;2023-06-24T02:09:12;101518.75;;;25.62;49.52
38786;BME280;24535;45.508;12.252;2023-06-24T02:11:38;101512.88;;;25.59;49.49
38786;BME280;24535;45.508;12.252;2023-06-24T02:14:04;101520.31;;;25.57;49.53
38786;BME280;24535;45.508;12.252;2023-06-24T02:16:31;101524.00;;;25.56;50.06
38786;BME280;24535;45.508;12.252;2023-06-24T02:18:57;101538.53;;;25.55;49.90
38786;BME280;24535;45.508;12.252;2023-06-24T02:21:23;101527.09;;;25.53;50.10
38786;BME280;24535;45.508;12.252;2023-06-24T02:23:49;101529.13;;;25.51;50.30
38786;BME280;24535;45.508;12.252;2023-06-24T02:26:15;101520.38;;;25.49;50.08
38786;BME280;24535;45.508;12.252;2023-06-24T02:28:41;101526.13;;;25.46;50.59
38786;BME280;24535;45.508;12.252;2023-06-24T02:31:07;101534.41;;;25.44;50.47
38786;BME280;24535;45.508;12.252;2023-06-24T02:33:33;101536.66;;;25.40;50.83
38786;BME280;24535;45.508;12.252;2023-06-24T02:35:58;101536.81;;;25.39;50.78
38786;BME280;24535;45.508;12.252;2023-06-24T02:38:24;101535.31;;;25.36;50.97
38786;BME280;24535;45.508;12.252;2023-06-24T02:40:49;101531.94;;;25.34;51.02
38786;BME280;24535;45.508;12.252;2023-06-24T02:43:14;101529.44;;;25.33;50.94
38786;BME280;24535;45.508;12.252;2023-06-24T02:45:40;101539.22;;;25.34;51.27
38786;BME280;24535;45.508;12.252;2023-06-24T02:48:06;101534.66;;;25.34;52.14
38786;BME280;24535;45.508;12.252;2023-06-24T02:50:33;101542.56;;;25.36;51.83
38786;BME280;24535;45.508;12.252;2023-06-24T02:52:59;101541.38;;;25.38;51.39
38786;BME280;24535;45.508;12.252;2023-06-24T02:55:24;101544.25;;;25.37;51.07
38786;BME280;24535;45.508;12.252;2023-06-24T02:57:50;101559.97;;;25.33;50.92
38786;BME280;24535;45.508;12.252;2023-06-24T03:00:16;101563.19;;;25.29;51.05
38786;BME280;24535;45.508;12.252;2023-06-24T03:02:41;101567.75;;;25.28;51.62
38786;BME280;24535;45.508;12.252;2023-06-24T03:05:08;101571.44;;;25.27;50.37
38786;BME280;24535;45.508;12.252;2023-06-24T03:07:34;101585.13;;;25.26;50.16
38786;BME280;24535;45.508;12.252;2023-06-24T03:10:04;101584.44;;;25.24;50.10
38786;BME280;24535;45.508;12.252;2023-06-24T03:12:31;101590.38;;;25.19;50.35
38786;BME280;24535;45.508;12.252;2023-06-24T03:14:56;101600.69;;;25.15;49.87
38786;BME280;24535;45.508;12.252;2023-06-24T03:17:21;101600.69;;;25.15;50.49
38786;BME280;24535;45.508;12.252;2023-06-24T03:19:47;101603.38;;;25.15;50.55
38786;BME280;24535;45.508;12.252;2023-06-24T03:22:12;101603.56;;;25.14;51.04
38786;BME280;24535;45.508;12.252;2023-06-24T03:24:37;101614.53;;;25.12;49.68
38786;BME280;24535;45.508;12.252;2023-06-24T03:29:30;101621.13;;;25.10;50.70
38786;BME280;24535;45.508;12.252;2023-06-24T03:31:56;101620.44;;;25.08;50.12
38786;BME280;24535;45.508;12.252;2023-06-24T03:34:21;101625.16;;;25.06;49.92
38786;BME280;24535;45.508;12.252;2023-06-24T03:36:46;101628.19;;;25.03;50.10
38786;BME280;24535;45.508;12.252;2023-06-24T03:39:11;101624.84;;;25.01;49.87
38786;BME280;24535;45.508;12.252;2023-06-24T03:41:37;101623.19;;;25.00;50.11
38786;BME280;24535;45.508;12.252;2023-06-24T03:44:02;101629.56;;;24.99;50.91
38786;BME280;24535;45.508;12.252;2023-06-24T03:46:27;101623.34;;;24.98;50.99
38786;BME280;24535;45.508;12.252;2023-06-24T03:48:57;101628.19;;;25.03;51.69
38786;BME280;24535;45.508;12.252;2023-06-24T03:51:23;101635.94;;;25.06;50.99
38786;BME280;24535;45.508;12.252;2023-06-24T03:53:48;101626.34;;;25.03;50.64
38786;BME280;24535;45.508;12.252;2023-06-24T03:56:14;101633.78;;;25.01;51.00
38786;BME280;24535;45.508;12.252;2023-06-24T03:58:39;101635.97;;;24.98;51.51
38786;BME280;24535;45.508;12.252;2023-06-24T04:01:05;101634.94;;;24.99;51.29
38786;BME280;24535;45.508;12.252;2023-06-24T04:03:30;101634.13;;;24.98;51.42
38786;BME280;24535;45.508;12.252;2023-06-24T04:05:56;101643.88;;;24.99;51.77
38786;BME280;24535;45.508;12.252;2023-06-24T04:11:13;101649.22;;;25.07;51.47
38786;BME280;24535;45.508;12.252;2023-06-24T04:13:39;101649.94;;;25.09;51.04
38786;BME280;24535;45.508;12.252;2023-06-24T04:16:04;101650.94;;;25.08;50.72
38786;BME280;24535;45.508;12.252;2023-06-24T04:18:29;101658.53;;;25.05;50.59
38786;BME280;24535;45.508;12.252;2023-06-24T04:20:55;101659.56;;;25.04;51.08
38786;BME280;24535;45.508;12.252;2023-06-24T04:23:20;101657.19;;;25.01;51.02
38786;BME280;24535;45.508;12.252;2023-06-24T04:25:45;101662.75;;;24.99;51.55
38786;BME280;24535;45.508;12.252;2023-06-24T04:28:10;101660.25;;;24.98;51.11
38786;BME280;24535;45.508;12.252;2023-06-24T04:30:36;101665.63;;;24.98;51.49
38786;BME280;24535;45.508;12.252;2023-06-24T04:33:03;101661.06;;;24.98;51.56
38786;BME280;24535;45.508;12.252;2023-06-24T04:35:28;101658.38;;;24.98;51.59
38786;BME280;24535;45.508;12.252;2023-06-24T04:37:55;101669.00;;;25.00;51.45
38786;BME280;24535;45.508;12.252;2023-06-24T04:40:20;101670.69;;;25.01;52.14
38786;BME280;24535;45.508;12.252;2023-06-24T04:42:46;101680.44;;;25.02;51.96
38786;BME280;24535;45.508;12.252;2023-06-24T04:45:11;101669.47;;;25.03;52.17
38786;BME280;24535;45.508;12.252;2023-06-24T04:47:36;101674.88;;;25.03;52.13
38786;BME280;24535;45.508;12.252;2023-06-24T04:50:02;101680.75;;;25.07;51.90
38786;BME280;24535;45.508;12.252;2023-06-24T04:52:27;101677.41;;;25.05;51.67
38786;BME280;24535;45.508;12.252;2023-06-24T04:54:52;101679.09;;;25.06;51.71
38786;BME280;24535;45.508;12.252;2023-06-24T04:57:27;101674.53;;;25.06;52.18
38786;BME280;24535;45.508;12.252;2023-06-24T04:59:53;101677.06;;;25.08;52.20
38786;BME280;24535;45.508;12.252;2023-06-24T05:02:18;101678.44;;;25.12;52.55
38786;BME280;24535;45.508;12.252;2023-06-24T05:04:59;101684.28;;;25.15;51.79
38786;BME280;24535;45.508;12.252;2023-06-24T05:07:24;101683.78;;;25.20;52.24
38786;BME280;24535;45.508;12.252;2023-06-24T05:09:56;101682.59;;;25.23;52.04
38786;BME280;24535;45.508;12.252;2023-06-24T05:12:21;101685.78;;;25.26;52.31
38786;BME280;24535;45.508;12.252;2023-06-24T05:14:50;101684.75;;;25.27;52.32
38786;BME280;24535;45.508;12.252;2023-06-24T05:17:16;101688.13;;;25.29;52.32
38786;BME280;24535;45.508;12.252;2023-06-24T05:19:42;101687.78;;;25.32;52.25
38786;BME280;24535;45.508;12.252;2023-06-24T05:22:07;101694.50;;;25.36;52.29
38786;BME280;24535;45.508;12.252;2023-06-24T05:24:32;101703.25;;;25.38;52.45
38786;BME280;24535;45.508;12.252;2023-06-24T05:27:03;101704.38;;;25.44;52.59
38786;BME280;24535;45.508;12.252;2023-06-24T05:29:31;101707.56;;;25.48;52.22
38786;BME280;24535;45.508;12.252;2023-06-24T05:31:59;101705.56;;;25.50;51.78
38786;BME280;24535;45.508;12.252;2023-06-24T05:34:45;101710.59;;;25.53;51.99
38786;BME280;24535;45.508;12.252;2023-06-24T05:40:13;101712.78;;;25.57;51.62
38786;BME280;24535;45.508;12.252;2023-06-24T05:42:38;101714.25;;;25.60;51.97
38786;BME280;24535;45.508;12.252;2023-06-24T05:45:04;101718.28;;;25.64;52.07
38786;BME280;24535;45.508;12.252;2023-06-24T05:47:30;101713.84;;;25.71;51.56
38786;BME280;24535;45.508;12.252;2023-06-24T05:49:55;101718.72;;;25.76;51.21
38786;BME280;24535;45.508;12.252;2023-06-24T05:52:20;101722.63;;;25.81;51.35
38786;BME280;24535;45.508;12.252;2023-06-24T05:54:45;101724.78;;;25.86;51.71
38786;BME280;24535;45.508;12.252;2023-06-24T05:57:11;101725.75;;;25.93;51.46
38786;BME280;24535;45.508;12.252;2023-06-24T05:59:36;101723.00;;;26.01;52.29
38786;BME280;24535;45.508;12.252;2023-06-24T06:02:01;101729.81;;;26.12;51.70
38786;BME280;24535;45.508;12.252;2023-06-24T06:04:27;101722.13;;;26.24;51.74
38786;BME280;24535;45.508;12.252;2023-06-24T06:06:53;101731.66;;;26.34;51.08
38786;BME280;24535;45.508;12.252;2023-06-24T06:12:21;101730.31;;;26.53;50.63
38786;BME280;24535;45.508;12.252;2023-06-24T06:14:51;101740.22;;;26.61;50.71
38786;BME280;24535;45.508;12.252;2023-06-24T06:17:17;101749.28;;;26.68;50.75
38786;BME280;24535;45.508;12.252;2023-06-24T06:19:42;101746.69;;;26.75;50.78
38786;BME280;24535;45.508;12.252;2023-06-24T06:22:11;101747.19;;;26.78;50.85
38786;BME280;24535;45.508;12.252;2023-06-24T06:24:37;101739.53;;;26.82;51.50
38786;BME280;24535;45.508;12.252;2023-06-24T06:27:02;101752.31;;;26.88;50.97
38786;BME280;24535;45.508;12.252;2023-06-24T06:29:27;101753.41;;;26.94;51.75
38786;BME280;24535;45.508;12.252;2023-06-24T06:31:53;101751.84;;;26.99;51.95
38786;BME280;24535;45.508;12.252;2023-06-24T06:34:20;101751.75;;;27.07;51.98
38786;BME280;24535;45.508;12.252;2023-06-24T06:36:45;101755.25;;;27.16;52.02
38786;BME280;24535;45.508;12.252;2023-06-24T06:39:10;101757.28;;;27.29;51.94
38786;BME280;24535;45.508;12.252;2023-06-24T06:41:41;101762.22;;;27.40;51.96
38786;BME280;24535;45.508;12.252;2023-06-24T06:44:07;101762.59;;;27.52;52.03
38786;BME280;24535;45.508;12.252;2023-06-24T06:46:32;101759.19;;;27.65;52.09
38786;BME280;24535;45.508;12.252;2023-06-24T06:48:58;101762.28;;;27.76;51.40
38786;BME280;24535;45.508;12.252;2023-06-24T06:51:25;101761.38;;;27.91;50.65
38786;BME280;24535;45.508;12.252;2023-06-24T06:53:51;101764.44;;;28.02;51.51
38786;BME280;24535;45.508;12.252;2023-06-24T06:56:23;101765.81;;;28.13;50.83
38786;BME280;24535;45.508;12.252;2023-06-24T06:58:52;101764.44;;;28.24;50.81
38786;BME280;24535;45.508;12.252;2023-06-24T07:01:20;101769.53;;;28.33;50.09
38786;BME280;24535;45.508;12.252;2023-06-24T07:03:46;101774.84;;;28.42;49.67
38786;BME280;24535;45.508;12.252;2023-06-24T07:08:36;101768.34;;;28.64;48.79
38786;BME280;24535;45.508;12.252;2023-06-24T07:11:05;101777.44;;;28.78;48.17
38786;BME280;24535;45.508;12.252;2023-06-24T07:13:30;101776.47;;;28.86;47.91
38786;BME280;24535;45.508;12.252;2023-06-24T07:15:55;101773.97;;;28.91;47.38
38786;BME280;24535;45.508;12.252;2023-06-24T07:18:21;101775.75;;;28.98;47.12
38786;BME280;24535;45.508;12.252;2023-06-24T07:20:46;101778.75;;;29.10;46.20
38786;BME280;24535;45.508;12.252;2023-06-24T07:23:11;101778.19;;;29.21;45.82
38786;BME280;24535;45.508;12.252;2023-06-24T07:25:37;101780.91;;;29.28;44.94
38786;BME280;24535;45.508;12.252;2023-06-24T07:28:02;101777.81;;;29.31;44.10
38786;BME280;24535;45.508;12.252;2023-06-24T07:30:27;101780.31;;;29.32;44.49
38786;BME280;24535;45.508;12.252;2023-06-24T07:32:53;101778.25;;;29.35;44.83
38786;BME280;24535;45.508;12.252;2023-06-24T07:35:18;101774.47;;;29.36;44.76
38786;BME280;24535;45.508;12.252;2023-06-24T07:37:44;101784.28;;;29.37;44.53
38786;BME280;24535;45.508;12.252;2023-06-24T07:40:09;101783.28;;;29.38;44.01
38786;BME280;24535;45.508;12.252;2023-06-24T07:42:35;101783.72;;;29.41;44.62
38786;BME280;24535;45.508;12.252;2023-06-24T07:45:00;101789.81;;;29.50;45.06
38786;BME280;24535;45.508;12.252;2023-06-24T07:47:25;101782.19;;;29.67;44.82
38786;BME280;24535;45.508;12.252;2023-06-24T07:49:51;101779.34;;;30.01;44.67
38786;BME280;24535;45.508;12.252;2023-06-24T07:52:16;101780.28;;;30.55;44.44
38786;BME280;24535;45.508;12.252;2023-06-24T07:54:42;101783.34;;;31.18;43.59
38786;BME280;24535;45.508;12.252;2023-06-24T07:57:13;101785.22;;;31.83;42.89
38786;BME280;24535;45.508;12.252;2023-06-24T07:59:39;101784.88;;;32.42;41.14
38786;BME280;24535;45.508;12.252;2023-06-24T08:02:04;101784.66;;;32.94;40.35
38786;BME280;24535;45.508;12.252;2023-06-24T08:04:30;101786.63;;;33.42;38.84
38786;BME280;24535;45.508;12.252;2023-06-24T08:06:55;101788.53;;;33.90;38.26
38786;BME280;24535;45.508;12.252;2023-06-24T08:09:20;101788.81;;;34.30;37.48
38786;BME280;24535;45.508;12.252;2023-06-24T08:11:46;101787.81;;;34.66;37.51
38786;BME280;24535;45.508;12.252;2023-06-24T08:14:11;101796.63;;;35.04;37.17
38786;BME280;24535;45.508;12.252;2023-06-24T08:16:36;101797.03;;;35.36;36.84
38786;BME280;24535;45.508;12.252;2023-06-24T08:19:02;101799.28;;;35.62;36.27
38786;BME280;24535;45.508;12.252;2023-06-24T08:21:27;101795.78;;;35.67;35.82
38786;BME280;24535;45.508;12.252;2023-06-24T08:23:55;101785.22;;;35.59;35.13
38786;BME280;24535;45.508;12.252;2023-06-24T08:26:20;101790.97;;;35.34;35.23
38786;BME280;24535;45.508;12.252;2023-06-24T08:28:47;101792.94;;;34.98;35.32
38786;BME280;24535;45.508;12.252;2023-06-24T08:31:12;101792.69;;;34.64;37.17
38786;BME280;24535;45.508;12.252;2023-06-24T08:33:37;101797.41;;;34.45;36.89
38786;BME280;24535;45.508;12.252;2023-06-24T08:36:03;101793.25;;;34.55;37.35
38786;BME280;24535;45.508;12.252;2023-06-24T08:38:28;101793.28;;;34.66;37.09
38786;BME280;24535;45.508;12.252;2023-06-24T08:40:53;101786.63;;;34.74;36.60
38786;BME280;24535;45.508;12.252;2023-06-24T08:43:19;101783.03;;;34.74;36.88
38786;BME280;24535;45.508;12.252;2023-06-24T08:45:44;101779.38;;;34.68;36.84
38786;BME280;24535;45.508;12.252;2023-06-24T08:48:10;101776.75;;;34.61;36.66
38786;BME280;24535;45.508;12.252;2023-06-24T08:50:36;101771.72;;;34.58;36.91
38786;BME280;24535;45.508;12.252;2023-06-24T08:53:03;101776.97;;;34.48;37.08
38786;BME280;24535;45.508;12.252;2023-06-24T08:55:31;101773.47;;;34.41;36.98
38786;BME280;24535;45.508;12.252;2023-06-24T08:57:57;101776.19;;;34.29;37.06
38786;BME280;24535;45.508;12.252;2023-06-24T09:00:26;101779.59;;;34.13;37.28
38786;BME280;24535;45.508;12.252;2023-06-24T09:08:53;101764.47;;;33.50;38.02
38786;BME280;24535;45.508;12.252;2023-06-24T09:14:18;101767.06;;;33.08;38.65
38786;BME280;24535;45.508;12.252;2023-06-24T09:16:50;101770.34;;;32.92;38.91
38786;BME280;24535;45.508;12.252;2023-06-24T09:19:19;101756.69;;;32.73;39.32
38786;BME280;24535;45.508;12.252;2023-06-24T09:21:45;101764.38;;;32.58;39.68
38786;BME280;24535;45.508;12.252;2023-06-24T09:24:11;101765.53;;;32.44;39.15
38786;BME280;24535;45.508;12.252;2023-06-24T09:26:36;101757.44;;;32.31;39.69
38786;BME280;24535;45.508;12.252;2023-06-24T09:29:01;101747.47;;;32.18;39.91
38786;BME280;24535;45.508;12.252;2023-06-24T09:31:29;101752.38;;;32.09;39.94
38786;BME280;24535;45.508;12.252;2023-06-24T09:33:56;101749.91;;;32.01;40.40
38786;BME280;24535;45.508;12.252;2023-06-24T09:36:22;101757.06;;;31.95;40.26
38786;BME280;24535;45.508;12.252;2023-06-24T09:38:47;101751.44;;;31.90;40.48
38786;BME280;24535;45.508;12.252;2023-06-24T09:41:13;101753.16;;;31.85;39.93
38786;BME280;24535;45.508;12.252;2023-06-24T09:43:40;101757.56;;;31.79;40.55
38786;BME280;24535;45.508;12.252;2023-06-24T09:46:07;101752.16;;;31.72;39.97
38786;BME280;24535;45.508;12.252;2023-06-24T09:48:33;101750.91;;;31.68;39.83
38786;BME280;24535;45.508;12.252;2023-06-24T09:51:02;101747.56;;;31.66;40.04
38786;BME280;24535;45.508;12.252;2023-06-24T09:53:34;101754.28;;;31.64;39.51
38786;BME280;24535;45.508;12.252;2023-06-24T09:56:00;101746.56;;;31.61;39.94
38786;BME280;24535;45.508;12.252;2023-06-24T09:58:26;101749.06;;;31.56;40.01
38786;BME280;24535;45.508;12.252;2023-06-24T10:00:51;101735.06;;;31.52;39.83
38786;BME280;24535;45.508;12.252;2023-06-24T10:03:17;101731.72;;;31.50;40.57
38786;BME280;24535;45.508;12.252;2023-06-24T10:05:43;101738.06;;;31.44;40.16
38786;BME280;24535;45.508;12.252;2023-06-24T10:08:09;101728.00;;;31.38;40.28
38786;BME280;24535;45.508;12.252;2023-06-24T10:10:41;101733.69;;;31.36;39.89
38786;BME280;24535;45.508;12.252;2023-06-24T10:13:06;101722.56;;;31.31;40.37
38786;BME280;24535;45.508;12.252;2023-06-24T10:18:35;101725.50;;;31.23;37.79
38786;BME280;24535;45.508;12.252;2023-06-24T10:21:01;101720.28;;;31.21;39.38
38786;BME280;24535;45.508;12.252;2023-06-24T10:26:01;101713.19;;;31.20;38.12
38786;BME280;24535;45.508;12.252;2023-06-24T10:28:27;101712.53;;;31.18;37.98
38786;BME280;24535;45.508;12.252;2023-06-24T10:39:57;101705.44;;;31.11;38.19
38786;BME280;24535;45.508;12.252;2023-06-24T10:44:49;101709.88;;;31.12;37.22
38786;BME280;24535;45.508;12.252;2023-06-24T10:47:14;101707.16;;;31.12;37.83
38786;BME280;24535;45.508;12.252;2023-06-24T10:49:40;101702.72;;;31.11;37.06
38786;BME280;24535;45.508;12.252;2023-06-24T10:52:09;101697.94;;;31.06;37.75
38786;BME280;24535;45.508;12.252;2023-06-24T10:54:35;101691.03;;;31.03;37.72
38786;BME280;24535;45.508;12.252;2023-06-24T10:57:00;101700.69;;;30.99;38.12
38786;BME280;24535;45.508;12.252;2023-06-24T10:59:26;101686.66;;;30.96;37.01
38786;BME280;24535;45.508;12.252;2023-06-24T11:02:01;101683.31;;;30.94;38.22
38786;BME280;24535;45.508;12.252;2023-06-24T11:04:26;101683.97;;;30.89;37.47
38786;BME280;24535;45.508;12.252;2023-06-24T11:09:41;101674.56;;;30.85;37.34
38786;BME280;24535;45.508;12.252;2023-06-24T11:12:10;101668.28;;;30.85;38.05
38786;BME280;24535;45.508;12.252;2023-06-24T11:14:35;101663.91;;;30.84;37.74
38786;BME280;24535;45.508;12.252;2023-06-24T11:17:01;101667.63;;;30.83;38.58
38786;BME280;24535;45.508;12.252;2023-06-24T11:19:27;101668.69;;;30.82;37.01
38786;BME280;24535;45.508;12.252;2023-06-24T11:21:52;101661.59;;;30.81;38.41
38786;BME280;24535;45.508;12.252;2023-06-24T11:24:17;101672.47;;;30.81;38.67
38786;BME280;24535;45.508;12.252;2023-06-24T11:26:43;101659.94;;;30.80;38.65
38786;BME280;24535;45.508;12.252;2023-06-24T11:29:11;101655.75;;;30.77;39.11
38786;BME280;24535;45.508;12.252;2023-06-24T11:31:36;101660.34;;;30.76;38.81
38786;BME280;24535;45.508;12.252;2023-06-24T11:34:02;101651.97;;;30.78;39.32
38786;BME280;24535;45.508;12.252;2023-06-24T11:36:28;101648.41;;;30.77;39.42
38786;BME280;24535;45.508;12.252;2023-06-24T11:38:54;101652.19;;;30.76;39.21
38786;BME280;24535;45.508;12.252;2023-06-24T11:41:20;101644.84;;;30.77;39.72
38786;BME280;24535;45.508;12.252;2023-06-24T11:43:46;101652.41;;;30.75;39.37
38786;BME280;24535;45.508;12.252;2023-06-24T11:46:21;101646.09;;;30.74;40.04
38786;BME280;24535;45.508;12.252;2023-06-24T11:48:57;101641.72;;;30.73;39.73
38786;BME280;24535;45.508;12.252;2023-06-24T11:51:27;101636.66;;;30.70;40.37
38786;BME280;24535;45.508;12.252;2023-06-24T11:53:52;101633.94;;;30.70;40.04
38786;BME280;24535;45.508;12.252;2023-06-24T11:56:18;101633.94;;;30.70;39.99
38786;BME280;24535;45.508;12.252;2023-06-24T11:58:43;101639.38;;;30.70;40.29
38786;BME280;24535;45.508;12.252;2023-06-24T12:01:09;101636.25;;;30.67;40.62
38786;BME280;24535;45.508;12.252;2023-06-24T12:03:34;101634.19;;;30.62;41.11
38786;BME280;24535;45.508;12.252;2023-06-24T12:06:00;101636.47;;;30.65;40.71
38786;BME280;24535;45.508;12.252;2023-06-24T12:08:25;101644.88;;;30.64;40.82
38786;BME280;24535;45.508;12.252;2023-06-24T12:10:51;101634.81;;;30.64;39.88
38786;BME280;24535;45.508;12.252;2023-06-24T12:13:16;101631.03;;;30.65;40.24
38786;BME280;24535;45.508;12.252;2023-06-24T12:15:41;101631.25;;;30.64;40.31
38786;BME280;24535;45.508;12.252;2023-06-24T12:18:07;101626.66;;;30.64;40.49
38786;BME280;24535;45.508;12.252;2023-06-24T12:20:32;101632.28;;;30.63;39.98
38786;BME280;24535;45.508;12.252;2023-06-24T12:22:59;101630.44;;;30.63;40.04
38786;BME280;24535;45.508;12.252;2023-06-24T12:25:24;101631.25;;;30.64;40.25
38786;BME280;24535;45.508;12.252;2023-06-24T12:27:50;101623.09;;;30.64;40.43
38786;BME280;24535;45.508;12.252;2023-06-24T12:30:15;101626.66;;;30.64;40.06
38786;BME280;24535;45.508;12.252;2023-06-24T12:32:41;101631.88;;;30.66;39.94
38786;BME280;24535;45.508;12.252;2023-06-24T12:35:07;101625.59;;;30.65;40.77
38786;BME280;24535;45.508;12.252;2023-06-24T12:37:34;101628.53;;;30.64;40.90
38786;BME280;24535;45.508;12.252;2023-06-24T12:40:00;101628.75;;;30.62;41.22
38786;BME280;24535;45.508;12.252;2023-06-24T12:42:31;101632.94;;;30.58;41.44
38786;BME280;24535;45.508;12.252;2023-06-24T12:44:56;101635.88;;;30.57;41.30
38786;BME280;24535;45.508;12.252;2023-06-24T12:47:22;101633.38;;;30.55;41.22
38786;BME280;24535;45.508;12.252;2023-06-24T12:49:48;101631.50;;;30.56;41.30
38786;BME280;24535;45.508;12.252;2023-06-24T12:52:16;101631.28;;;30.57;41.39
38786;BME280;24535;45.508;12.252;2023-06-24T12:54:41;101627.72;;;30.57;41.13
38786;BME280;24535;45.508;12.252;2023-06-24T12:57:07;101636.72;;;30.57;41.51
38786;BME280;24535;45.508;12.252;2023-06-24T12:59:32;101634.00;;;30.57;41.51
38786;BME280;24535;45.508;12.252;2023-06-24T13:01:57;101626.88;;;30.56;41.78
38786;BME280;24535;45.508;12.252;2023-06-24T13:04:22;101632.09;;;30.58;42.11
38786;BME280;24535;45.508;12.252;2023-06-24T13:06:51;101635.66;;;30.58;42.23
38786;BME280;24535;45.508;12.252;2023-06-24T13:09:16;101639.22;;;30.59;42.04
38786;BME280;24535;45.508;12.252;2023-06-24T13:11:42;101634.00;;;30.57;41.96
38786;BME280;24535;45.508;12.252;2023-06-24T13:14:07;101642.97;;;30.58;41.66
38786;BME280;24535;45.508;12.252;2023-06-24T13:16:34;101634.41;;;30.54;41.50
38786;BME280;24535;45.508;12.252;2023-06-24T13:19:01;101628.97;;;30.54;41.39
38786;BME280;24535;45.508;12.252;2023-06-24T13:21:26;101630.66;;;30.55;41.11